sensor_id;sensor_type;location;lat;lon;timestamp;P1;durP1;ratioP1;P2;durP2;ratioP2
42742;SDS011;28397;44.552;-0.848;2022-09-19T00:01:19;3.80;;;2.20;;
42742;SDS011;28397;44.552;-0.848;2022-09-19T00:03:55;2.80;;;2.13;;
42742;SDS011;28397;44.552;-0.848;2022-09-19T00:06:23;4.05;;;2.17;;
42742;SDS011;28397;44.552;-0.848;2022-09-19T00:08:51;3.00;;;1.90;;
42742;SDS011;28397;44.552;-0.848;2022-09-19T00:11:18;3.30;;;1.83;;
42742;SDS011;28397;44.552;-0.848;2022-09-19T00:13:45;3.25;;;2.10;;
42742;SDS011;28397;44.552;-0.848;2022-09-19T00:16:13;2.83;;;1.95;;
42742;SDS011;28397;44.552;-0.848;2022-09-19T00:18:46;2.90;;;2.00;;
42742;SDS011;28397;44.552;-0.848;2022-09-19T00:23:52;2.83;;;1.83;;
42742;SDS011;28397;44.552;-0.848;2022-09-19T00:26:37;2.55;;;1.65;;
42742;SDS011;28397;44.552;-0.848;2022-09-19T00:29:04;4.20;;;1.80;;
42742;SDS011;28397;44.552;-0.848;2022-09-19T00:31:32;2.58;;;1.63;;
42742;SDS011;28397;44.552;-0.848;2022-09-19T00:33:57;2.85;;;1.55;;
42742;SDS011;28397;44.552;-0.848;2022-09-19T00:36:24;3.03;;;1.80;;
42742;SDS011;28397;44.552;-0.848;2022-09-19T00:38:50;3.97;;;1.88;;
42742;SDS011;28397;44.552;-0.848;2022-09-19T00:41:16;4.45;;;1.77;;
42742;SDS011;28397;44.552;-0.848;2022-09-19T00:46:13;3.22;;;1.63;;
42742;SDS011;28397;44.552;-0.848;2022-09-19T00:48:40;2.92;;;1.65;;
42742;SDS011;28397;44.552;-0.848;2022-09-19T00:51:17;2.72;;;1.77;;
42742;SDS011;28397;44.552;-0.848;2022-09-19T00:53:47;2.75;;;1.50;;
42742;SDS011;28397;44.552;-0.848;2022-09-19T00:56:13;3.95;;;1.58;;
42742;SDS011;28397;44.552;-0.848;2022-09-19T00:58:42;3.08;;;1.77;;
42742;SDS011;28397;44.552;-0.848;2022-09-19T01:01:14;3.50;;;1.75;;
42742;SDS011;28397;44.552;-0.848;2022-09-19T01:03:41;4.35;;;1.67;;
42742;SDS011;28397;44.552;-0.848;2022-09-19T01:14:49;3.53;;;1.67;;
42742;SDS011;28397;44.552;-0.848;2022-09-19T01:17:45;2.05;;;1.63;;
42742;SDS011;28397;44.552;-0.848;2022-09-19T01:22:45;3.30;;;1.50;;
42742;SDS011;28397;44.552;-0.848;2022-09-19T01:28:40;2.35;;;1.50;;
42742;SDS011;28397;44.552;-0.848;2022-09-19T01:31:14;4.75;;;1.60;;
42742;SDS011;28397;44.552;-0.848;2022-09-19T01:36:23;2.05;;;1.52;;
42742;SDS011;28397;44.552;-0.848;2022-09-19T01:38:55;2.40;;;1.87;;
42742;SDS011;28397;44.552;-0.848;2022-09-19T01:41:22;3.67;;;1.73;;
42742;SDS011;28397;44.552;-0.848;2022-09-19T01:43:49;2.33;;;1.60;;
42742;SDS011;28397;44.552;-0.848;2022-09-19T01:46:31;2.13;;;1.58;;
42742;SDS011;28397;44.552;-0.848;2022-09-19T01:51:50;2.63;;;1.60;;
42742;SDS011;28397;44.552;-0.848;2022-09-19T01:59:57;2.75;;;1.60;;
42742;SDS011;28397;44.552;-0.848;2022-09-19T02:03:30;3.25;;;1.67;;
42742;SDS011;28397;44.552;-0.848;2022-09-19T02:10:40;4.95;;;1.85;;
42742;SDS011;28397;44.552;-0.848;2022-09-19T02:15:38;3.13;;;1.67;;
42742;SDS011;28397;44.552;-0.848;2022-09-19T02:18:11;4.47;;;1.80;;
42742;SDS011;28397;44.552;-0.848;2022-09-19T02:20:49;2.72;;;1.88;;
42742;SDS011;28397;44.552;-0.848;2022-09-19T02:23:22;2.88;;;1.80;;
42742;SDS011;28397;44.552;-0.848;2022-09-19T02:25:52;4.05;;;1.88;;
42742;SDS011;28397;44.552;-0.848;2022-09-19T02:28:34;3.20;;;1.90;;
42742;SDS011;28397;44.552;-0.848;2022-09-19T02:31:07;6.03;;;2.05;;
42742;SDS011;28397;44.552;-0.848;2022-09-19T02:33:34;2.58;;;1.80;;
42742;SDS011;28397;44.552;-0.848;2022-09-19T02:36:16;3.33;;;1.92;;
42742;SDS011;28397;44.552;-0.848;2022-09-19T02:41:44;3.10;;;1.85;;
42742;SDS011;28397;44.552;-0.848;2022-09-19T02:44:22;4.68;;;1.90;;
42742;SDS011;28397;44.552;-0.848;2022-09-19T02:52:31;2.63;;;2.08;;
42742;SDS011;28397;44.552;-0.848;2022-09-19T02:55:00;3.53;;;1.92;;
42742;SDS011;28397;44.552;-0.848;2022-09-19T02:57:35;2.30;;;1.90;;
42742;SDS011;28397;44.552;-0.848;2022-09-19T03:00:03;3.33;;;2.20;;
42742;SDS011;28397;44.552;-0.848;2022-09-19T03:02:38;2.42;;;1.80;;
42742;SDS011;28397;44.552;-0.848;2022-09-19T03:05:21;3.65;;;2.10;;
42742;SDS011;28397;44.552;-0.848;2022-09-19T03:07:57;4.28;;;1.80;;
42742;SDS011;28397;44.552;-0.848;2022-09-19T03:10:32;4.68;;;2.17;;
42742;SDS011;28397;44.552;-0.848;2022-09-19T03:13:02;2.17;;;1.73;;
42742;SDS011;28397;44.552;-0.848;2022-09-19T03:18:13;3.28;;;1.90;;
42742;SDS011;28397;44.552;-0.848;2022-09-19T03:20:44;2.97;;;1.83;;
42742;SDS011;28397;44.552;-0.848;2022-09-19T03:23:17;3.50;;;2.17;;
42742;SDS011;28397;44.552;-0.848;2022-09-19T03:26:00;4.30;;;2.33;;
42742;SDS011;28397;44.552;-0.848;2022-09-19T03:28:27;3.22;;;1.90;;
42742;SDS011;28397;44.552;-0.848;2022-09-19T03:30:53;4.00;;;2.00;;
42742;SDS011;28397;44.552;-0.848;2022-09-19T03:33:24;2.92;;;2.08;;
42742;SDS011;28397;44.552;-0.848;2022-09-19T03:35:51;3.80;;;1.80;;
42742;SDS011;28397;44.552;-0.848;2022-09-19T03:38:17;2.90;;;1.88;;
42742;SDS011;28397;44.552;-0.848;2022-09-19T03:40:45;3.17;;;2.08;;
42742;SDS011;28397;44.552;-0.848;2022-09-19T03:43:10;4.38;;;2.00;;
42742;SDS011;28397;44.552;-0.848;2022-09-19T03:45:36;3.38;;;2.13;;
42742;SDS011;28397;44.552;-0.848;2022-09-19T03:48:02;2.92;;;1.90;;
42742;SDS011;28397;44.552;-0.848;2022-09-19T03:50:27;5.85;;;1.90;;
42742;SDS011;28397;44.552;-0.848;2022-09-19T03:52:53;3.22;;;1.90;;
42742;SDS011;28397;44.552;-0.848;2022-09-19T03:55:19;5.05;;;1.90;;
42742;SDS011;28397;44.552;-0.848;2022-09-19T03:57:45;3.85;;;2.00;;
42742;SDS011;28397;44.552;-0.848;2022-09-19T04:00:11;3.35;;;1.92;;
42742;SDS011;28397;44.552;-0.848;2022-09-19T04:02:37;2.65;;;1.90;;
42742;SDS011;28397;44.552;-0.848;2022-09-19T04:05:03;3.40;;;1.77;;
42742;SDS011;28397;44.552;-0.848;2022-09-19T04:07:29;4.00;;;1.70;;
42742;SDS011;28397;44.552;-0.848;2022-09-19T04:09:55;2.30;;;1.73;;
42742;SDS011;28397;44.552;-0.848;2022-09-19T04:12:21;6.93;;;2.00;;
42742;SDS011;28397;44.552;-0.848;2022-09-19T04:14:48;2.60;;;1.98;;
42742;SDS011;28397;44.552;-0.848;2022-09-19T04:17:14;4.25;;;2.00;;
42742;SDS011;28397;44.552;-0.848;2022-09-19T04:19:40;4.50;;;2.00;;
42742;SDS011;28397;44.552;-0.848;2022-09-19T04:22:07;2.35;;;1.80;;
42742;SDS011;28397;44.552;-0.848;2022-09-19T04:24:34;3.42;;;2.10;;
42742;SDS011;28397;44.552;-0.848;2022-09-19T04:27:04;4.45;;;1.88;;
42742;SDS011;28397;44.552;-0.848;2022-09-19T04:29:32;3.50;;;1.90;;
42742;SDS011;28397;44.552;-0.848;2022-09-19T04:31:58;2.92;;;2.28;;
42742;SDS011;28397;44.552;-0.848;2022-09-19T04:34:27;2.35;;;1.85;;
42742;SDS011;28397;44.552;-0.848;2022-09-19T04:36:54;4.25;;;1.95;;
42742;SDS011;28397;44.552;-0.848;2022-09-19T04:39:21;5.03;;;1.90;;
42742;SDS011;28397;44.552;-0.848;2022-09-19T04:41:48;4.57;;;2.05;;
42742;SDS011;28397;44.552;-0.848;2022-09-19T04:44:17;3.10;;;1.88;;
42742;SDS011;28397;44.552;-0.848;2022-09-19T04:46:43;2.90;;;1.63;;
42742;SDS011;28397;44.552;-0.848;2022-09-19T04:49:11;2.50;;;1.60;;
42742;SDS011;28397;44.552;-0.848;2022-09-19T04:51:38;2.55;;;1.73;;
42742;SDS011;28397;44.552;-0.848;2022-09-19T04:54:04;3.25;;;1.90;;
42742;SDS011;28397;44.552;-0.848;2022-09-19T04:56:31;4.05;;;1.80;;
42742;SDS011;28397;44.552;-0.848;2022-09-19T04:58:57;3.47;;;1.80;;
42742;SDS011;28397;44.552;-0.848;2022-09-19T05:01:28;3.78;;;1.83;;
42742;SDS011;28397;44.552;-0.848;2022-09-19T05:03:56;2.47;;;1.48;;
42742;SDS011;28397;44.552;-0.848;2022-09-19T05:06:22;2.13;;;1.60;;
42742;SDS011;28397;44.552;-0.848;2022-09-19T05:08:49;2.90;;;1.73;;
42742;SDS011;28397;44.552;-0.848;2022-09-19T05:11:16;3.75;;;2.00;;
42742;SDS011;28397;44.552;-0.848;2022-09-19T05:13:47;2.38;;;1.75;;
42742;SDS011;28397;44.552;-0.848;2022-09-19T05:16:14;3.67;;;2.00;;
42742;SDS011;28397;44.552;-0.848;2022-09-19T05:18:41;3.78;;;1.80;;
42742;SDS011;28397;44.552;-0.848;2022-09-19T05:21:07;5.53;;;2.30;;
42742;SDS011;28397;44.552;-0.848;2022-09-19T05:23:38;2.55;;;1.70;;
42742;SDS011;28397;44.552;-0.848;2022-09-19T05:26:08;3.25;;;1.90;;
42742;SDS011;28397;44.552;-0.848;2022-09-19T05:28:41;4.07;;;2.25;;
42742;SDS011;28397;44.552;-0.848;2022-09-19T05:31:11;7.10;;;2.13;;
42742;SDS011;28397;44.552;-0.848;2022-09-19T05:33:37;6.00;;;2.20;;
42742;SDS011;28397;44.552;-0.848;2022-09-19T05:36:04;4.40;;;2.50;;
42742;SDS011;28397;44.552;-0.848;2022-09-19T05:38:30;6.22;;;2.00;;
42742;SDS011;28397;44.552;-0.848;2022-09-19T05:40:57;4.70;;;2.10;;
42742;SDS011;28397;44.552;-0.848;2022-09-19T05:43:24;3.97;;;1.80;;
42742;SDS011;28397;44.552;-0.848;2022-09-19T05:45:54;2.63;;;2.00;;
42742;SDS011;28397;44.552;-0.848;2022-09-19T05:48:21;4.32;;;2.00;;
42742;SDS011;28397;44.552;-0.848;2022-09-19T05:50:48;3.58;;;1.95;;
42742;SDS011;28397;44.552;-0.848;2022-09-19T05:53:15;3.92;;;2.03;;
42742;SDS011;28397;44.552;-0.848;2022-09-19T05:56:00;4.55;;;2.00;;
42742;SDS011;28397;44.552;-0.848;2022-09-19T05:58:26;3.97;;;2.00;;
42742;SDS011;28397;44.552;-0.848;2022-09-19T06:00:52;3.50;;;1.70;;
42742;SDS011;28397;44.552;-0.848;2022-09-19T06:03:19;4.35;;;1.70;;
42742;SDS011;28397;44.552;-0.848;2022-09-19T06:05:48;5.57;;;1.90;;
42742;SDS011;28397;44.552;-0.848;2022-09-19T06:08:16;5.35;;;1.90;;
42742;SDS011;28397;44.552;-0.848;2022-09-19T06:10:46;6.97;;;2.30;;
42742;SDS011;28397;44.552;-0.848;2022-09-19T06:13:14;6.15;;;2.20;;
42742;SDS011;28397;44.552;-0.848;2022-09-19T06:15:42;8.57;;;2.22;;
42742;SDS011;28397;44.552;-0.848;2022-09-19T06:18:08;6.90;;;2.20;;
42742;SDS011;28397;44.552;-0.848;2022-09-19T06:20:37;6.55;;;2.55;;
42742;SDS011;28397;44.552;-0.848;2022-09-19T06:23:10;7.95;;;2.25;;
42742;SDS011;28397;44.552;-0.848;2022-09-19T06:25:37;7.72;;;2.60;;
42742;SDS011;28397;44.552;-0.848;2022-09-19T06:28:05;8.23;;;2.70;;
42742;SDS011;28397;44.552;-0.848;2022-09-19T06:30:36;6.18;;;2.42;;
42742;SDS011;28397;44.552;-0.848;2022-09-19T06:33:03;10.68;;;2.25;;
42742;SDS011;28397;44.552;-0.848;2022-09-19T06:35:31;7.90;;;2.38;;
42742;SDS011;28397;44.552;-0.848;2022-09-19T06:37:58;4.15;;;1.80;;
42742;SDS011;28397;44.552;-0.848;2022-09-19T06:40:25;3.10;;;1.63;;
42742;SDS011;28397;44.552;-0.848;2022-09-19T06:43:01;6.85;;;1.92;;
42742;SDS011;28397;44.552;-0.848;2022-09-19T06:45:29;5.75;;;2.10;;
42742;SDS011;28397;44.552;-0.848;2022-09-19T06:47:57;9.77;;;2.58;;
42742;SDS011;28397;44.552;-0.848;2022-09-19T06:50:23;10.38;;;2.08;;
42742;SDS011;28397;44.552;-0.848;2022-09-19T06:52:50;5.13;;;2.50;;
42742;SDS011;28397;44.552;-0.848;2022-09-19T06:55:17;9.95;;;2.80;;
42742;SDS011;28397;44.552;-0.848;2022-09-19T06:57:43;4.15;;;2.35;;
42742;SDS011;28397;44.552;-0.848;2022-09-19T07:00:16;8.68;;;2.33;;
42742;SDS011;28397;44.552;-0.848;2022-09-19T07:02:42;5.20;;;2.10;;
42742;SDS011;28397;44.552;-0.848;2022-09-19T07:05:08;6.95;;;2.30;;
42742;SDS011;28397;44.552;-0.848;2022-09-19T07:07:34;10.45;;;2.60;;
42742;SDS011;28397;44.552;-0.848;2022-09-19T07:10:00;6.00;;;2.35;;
42742;SDS011;28397;44.552;-0.848;2022-09-19T07:12:25;5.40;;;1.98;;
42742;SDS011;28397;44.552;-0.848;2022-09-19T07:14:51;7.03;;;2.45;;
42742;SDS011;28397;44.552;-0.848;2022-09-19T07:17:17;4.85;;;2.58;;
42742;SDS011;28397;44.552;-0.848;2022-09-19T07:19:42;5.97;;;2.05;;
42742;SDS011;28397;44.552;-0.848;2022-09-19T07:22:09;6.43;;;2.28;;
42742;SDS011;28397;44.552;-0.848;2022-09-19T07:24:35;9.50;;;2.60;;
42742;SDS011;28397;44.552;-0.848;2022-09-19T07:27:01;5.47;;;2.20;;
42742;SDS011;28397;44.552;-0.848;2022-09-19T07:29:26;12.38;;;2.38;;
42742;SDS011;28397;44.552;-0.848;2022-09-19T07:31:52;7.28;;;2.10;;
42742;SDS011;28397;44.552;-0.848;2022-09-19T07:34:18;3.58;;;1.92;;
42742;SDS011;28397;44.552;-0.848;2022-09-19T07:36:43;3.40;;;1.58;;
42742;SDS011;28397;44.552;-0.848;2022-09-19T07:39:09;5.85;;;1.80;;
42742;SDS011;28397;44.552;-0.848;2022-09-19T07:41:35;3.20;;;1.58;;
42742;SDS011;28397;44.552;-0.848;2022-09-19T07:44:01;4.45;;;1.45;;
42742;SDS011;28397;44.552;-0.848;2022-09-19T07:46:26;8.18;;;1.70;;
42742;SDS011;28397;44.552;-0.848;2022-09-19T07:48:52;6.35;;;1.58;;
42742;SDS011;28397;44.552;-0.848;2022-09-19T07:51:19;5.43;;;1.40;;
42742;SDS011;28397;44.552;-0.848;2022-09-19T07:53:45;7.57;;;1.70;;
42742;SDS011;28397;44.552;-0.848;2022-09-19T07:56:12;5.75;;;1.52;;
42742;SDS011;28397;44.552;-0.848;2022-09-19T07:58:38;2.33;;;1.40;;
42742;SDS011;28397;44.552;-0.848;2022-09-19T08:01:03;3.65;;;1.58;;
42742;SDS011;28397;44.552;-0.848;2022-09-19T08:03:29;6.10;;;1.77;;
42742;SDS011;28397;44.552;-0.848;2022-09-19T08:05:58;4.95;;;1.48;;
42742;SDS011;28397;44.552;-0.848;2022-09-19T08:08:25;3.05;;;1.48;;
42742;SDS011;28397;44.552;-0.848;2022-09-19T08:10:51;5.47;;;1.40;;
42742;SDS011;28397;44.552;-0.848;2022-09-19T08:13:18;3.05;;;1.50;;
42742;SDS011;28397;44.552;-0.848;2022-09-19T08:15:44;1.70;;;1.27;;
42742;SDS011;28397;44.552;-0.848;2022-09-19T08:18:13;2.20;;;1.45;;
42742;SDS011;28397;44.552;-0.848;2022-09-19T08:20:46;4.65;;;1.50;;
42742;SDS011;28397;44.552;-0.848;2022-09-19T08:23:14;4.50;;;1.50;;
42742;SDS011;28397;44.552;-0.848;2022-09-19T08:25:44;3.72;;;1.30;;
42742;SDS011;28397;44.552;-0.848;2022-09-19T08:28:11;3.85;;;1.50;;
42742;SDS011;28397;44.552;-0.848;2022-09-19T08:30:38;3.65;;;1.40;;
42742;SDS011;28397;44.552;-0.848;2022-09-19T08:33:07;7.85;;;1.40;;
42742;SDS011;28397;44.552;-0.848;2022-09-19T08:35:34;4.18;;;1.55;;
42742;SDS011;28397;44.552;-0.848;2022-09-19T08:38:03;2.70;;;1.40;;
42742;SDS011;28397;44.552;-0.848;2022-09-19T08:40:31;2.65;;;1.30;;
42742;SDS011;28397;44.552;-0.848;2022-09-19T08:45:41;3.08;;;1.33;;
42742;SDS011;28397;44.552;-0.848;2022-09-19T08:54:13;4.13;;;1.48;;
42742;SDS011;28397;44.552;-0.848;2022-09-19T08:56:48;3.97;;;1.17;;
42742;SDS011;28397;44.552;-0.848;2022-09-19T08:59:15;2.13;;;1.30;;
42742;SDS011;28397;44.552;-0.848;2022-09-19T09:01:45;2.22;;;1.30;;
42742;SDS011;28397;44.552;-0.848;2022-09-19T09:04:25;2.30;;;1.27;;
42742;SDS011;28397;44.552;-0.848;2022-09-19T09:15:01;2.92;;;1.20;;
42742;SDS011;28397;44.552;-0.848;2022-09-19T09:23:20;1.80;;;1.25;;
42742;SDS011;28397;44.552;-0.848;2022-09-19T09:25:57;4.25;;;1.50;;
42742;SDS011;28397;44.552;-0.848;2022-09-19T09:28:37;1.88;;;1.35;;
42742;SDS011;28397;44.552;-0.848;2022-09-19T09:31:18;4.72;;;1.40;;
42742;SDS011;28397;44.552;-0.848;2022-09-19T09:34:04;3.42;;;1.50;;
42742;SDS011;28397;44.552;-0.848;2022-09-19T09:36:39;2.67;;;1.10;;
42742;SDS011;28397;44.552;-0.848;2022-09-19T09:41:41;3.05;;;1.20;;
42742;SDS011;28397;44.552;-0.848;2022-09-19T09:49:15;4.15;;;1.20;;
42742;SDS011;28397;44.552;-0.848;2022-09-19T09:51:53;3.60;;;1.30;;
42742;SDS011;28397;44.552;-0.848;2022-09-19T10:00:16;2.35;;;1.13;;
42742;SDS011;28397;44.552;-0.848;2022-09-19T10:05:46;1.75;;;1.40;;
42742;SDS011;28397;44.552;-0.848;2022-09-19T10:11:16;1.40;;;1.30;;
42742;SDS011;28397;44.552;-0.848;2022-09-19T10:13:56;1.30;;;1.20;;
42742;SDS011;28397;44.552;-0.848;2022-09-19T10:16:29;2.97;;;1.33;;
42742;SDS011;28397;44.552;-0.848;2022-09-19T10:19:06;2.88;;;1.50;;
42742;SDS011;28397;44.552;-0.848;2022-09-19T10:21:37;2.53;;;1.30;;
42742;SDS011;28397;44.552;-0.848;2022-09-19T10:24:49;2.15;;;1.35;;
42742;SDS011;28397;44.552;-0.848;2022-09-19T10:32:27;5.50;;;1.30;;
42742;SDS011;28397;44.552;-0.848;2022-09-19T10:35:22;4.20;;;1.30;;
42742;SDS011;28397;44.552;-0.848;2022-09-19T10:40:39;3.10;;;1.33;;
42742;SDS011;28397;44.552;-0.848;2022-09-19T10:43:26;2.70;;;1.30;;
42742;SDS011;28397;44.552;-0.848;2022-09-19T10:45:58;4.68;;;1.67;;
42742;SDS011;28397;44.552;-0.848;2022-09-19T10:48:31;4.30;;;1.33;;
42742;SDS011;28397;44.552;-0.848;2022-09-19T10:50:58;1.85;;;1.30;;
42742;SDS011;28397;44.552;-0.848;2022-09-19T10:53:30;3.28;;;1.55;;
42742;SDS011;28397;44.552;-0.848;2022-09-19T10:56:03;2.00;;;1.35;;
42742;SDS011;28397;44.552;-0.848;2022-09-19T10:58:37;5.78;;;1.45;;
42742;SDS011;28397;44.552;-0.848;2022-09-19T11:01:06;2.15;;;1.30;;
42742;SDS011;28397;44.552;-0.848;2022-09-19T11:04:03;1.73;;;1.30;;
42742;SDS011;28397;44.552;-0.848;2022-09-19T11:06:33;2.92;;;1.50;;
42742;SDS011;28397;44.552;-0.848;2022-09-19T11:08:59;4.25;;;1.60;;
42742;SDS011;28397;44.552;-0.848;2022-09-19T11:11:35;4.05;;;1.25;;
42742;SDS011;28397;44.552;-0.848;2022-09-19T11:19:36;4.32;;;1.50;;
42742;SDS011;28397;44.552;-0.848;2022-09-19T11:34:04;4.20;;;2.42;;
42742;SDS011;28397;44.552;-0.848;2022-09-19T11:39:56;2.65;;;1.80;;
42742;SDS011;28397;44.552;-0.848;2022-09-19T11:44:56;5.38;;;1.50;;
42742;SDS011;28397;44.552;-0.848;2022-09-19T11:47:30;4.90;;;1.60;;
42742;SDS011;28397;44.552;-0.848;2022-09-19T11:50:13;2.88;;;1.60;;
42742;SDS011;28397;44.552;-0.848;2022-09-19T12:09:20;3.38;;;1.50;;
42742;SDS011;28397;44.552;-0.848;2022-09-19T12:11:58;2.83;;;1.75;;
42742;SDS011;28397;44.552;-0.848;2022-09-19T12:14:26;2.92;;;1.60;;
42742;SDS011;28397;44.552;-0.848;2022-09-19T12:16:58;4.18;;;1.70;;
42742;SDS011;28397;44.552;-0.848;2022-09-19T12:22:11;2.85;;;1.55;;
42742;SDS011;28397;44.552;-0.848;2022-09-19T12:24:46;5.55;;;1.60;;
42742;SDS011;28397;44.552;-0.848;2022-09-19T12:30:15;3.53;;;1.70;;
42742;SDS011;28397;44.552;-0.848;2022-09-19T12:37:54;2.35;;;1.55;;
42742;SDS011;28397;44.552;-0.848;2022-09-19T12:40:38;3.55;;;1.90;;
42742;SDS011;28397;44.552;-0.848;2022-09-19T12:51:08;6.93;;;1.60;;
42742;SDS011;28397;44.552;-0.848;2022-09-19T12:56:15;2.28;;;1.50;;
42742;SDS011;28397;44.552;-0.848;2022-09-19T12:58:54;3.33;;;1.58;;
42742;SDS011;28397;44.552;-0.848;2022-09-19T13:04:07;2.85;;;1.40;;
42742;SDS011;28397;44.552;-0.848;2022-09-19T13:06:43;2.25;;;1.60;;
42742;SDS011;28397;44.552;-0.848;2022-09-19T13:09:13;1.80;;;1.50;;
42742;SDS011;28397;44.552;-0.848;2022-09-19T13:17:58;2.70;;;1.30;;
42742;SDS011;28397;44.552;-0.848;2022-09-19T13:20:45;3.25;;;1.48;;
42742;SDS011;28397;44.552;-0.848;2022-09-19T13:23:32;1.58;;;1.38;;
42742;SDS011;28397;44.552;-0.848;2022-09-19T13:28:54;2.83;;;1.40;;
42742;SDS011;28397;44.552;-0.848;2022-09-19T13:36:59;1.30;;;1.20;;
42742;SDS011;28397;44.552;-0.848;2022-09-19T13:39:42;1.48;;;1.30;;
42742;SDS011;28397;44.552;-0.848;2022-09-19T13:42:14;3.65;;;1.50;;
42742;SDS011;28397;44.552;-0.848;2022-09-19T13:44:51;1.90;;;1.48;;
42742;SDS011;28397;44.552;-0.848;2022-09-19T13:47:26;1.30;;;1.20;;
42742;SDS011;28397;44.552;-0.848;2022-09-19T13:52:30;2.33;;;1.30;;
42742;SDS011;28397;44.552;-0.848;2022-09-19T13:57:39;1.90;;;1.48;;
42742;SDS011;28397;44.552;-0.848;2022-09-19T14:01:04;3.00;;;1.40;;
42742;SDS011;28397;44.552;-0.848;2022-09-19T14:03:17;2.00;;;1.30;;
42742;SDS011;28397;44.552;-0.848;2022-09-19T14:09:34;1.60;;;1.23;;
42742;SDS011;28397;44.552;-0.848;2022-09-19T14:11:51;3.20;;;1.30;;
42742;SDS011;28397;44.552;-0.848;2022-09-19T14:15:00;5.53;;;1.60;;
42742;SDS011;28397;44.552;-0.848;2022-09-19T14:25:42;2.00;;;1.20;;
42742;SDS011;28397;44.552;-0.848;2022-09-19T14:31:12;2.60;;;1.42;;
42742;SDS011;28397;44.552;-0.848;2022-09-19T14:33:56;1.83;;;1.50;;
42742;SDS011;28397;44.552;-0.848;2022-09-19T14:47:30;3.78;;;1.52;;
42742;SDS011;28397;44.552;-0.848;2022-09-19T14:53:04;2.05;;;1.30;;
42742;SDS011;28397;44.552;-0.848;2022-09-19T14:56:35;2.33;;;1.65;;
42742;SDS011;28397;44.552;-0.848;2022-09-19T14:58:37;3.58;;;1.40;;
42742;SDS011;28397;44.552;-0.848;2022-09-19T15:03:55;5.00;;;1.45;;
42742;SDS011;28397;44.552;-0.848;2022-09-19T15:08:57;5.18;;;1.67;;
42742;SDS011;28397;44.552;-0.848;2022-09-19T15:11:23;3.60;;;1.50;;
42742;SDS011;28397;44.552;-0.848;2022-09-19T15:13:51;2.72;;;1.70;;
42742;SDS011;28397;44.552;-0.848;2022-09-19T15:16:22;4.28;;;1.45;;
42742;SDS011;28397;44.552;-0.848;2022-09-19T15:18:51;2.20;;;1.60;;
42742;SDS011;28397;44.552;-0.848;2022-09-19T15:21:24;2.97;;;1.70;;
42742;SDS011;28397;44.552;-0.848;2022-09-19T15:23:55;2.95;;;1.70;;
42742;SDS011;28397;44.552;-0.848;2022-09-19T15:26:25;2.78;;;1.48;;
42742;SDS011;28397;44.552;-0.848;2022-09-19T15:35:06;3.08;;;1.70;;
42742;SDS011;28397;44.552;-0.848;2022-09-19T15:37:39;2.03;;;1.70;;
42742;SDS011;28397;44.552;-0.848;2022-09-19T15:40:07;2.35;;;1.80;;
42742;SDS011;28397;44.552;-0.848;2022-09-19T15:42:45;2.63;;;1.50;;
42742;SDS011;28397;44.552;-0.848;2022-09-19T15:45:53;2.03;;;1.45;;
42742;SDS011;28397;44.552;-0.848;2022-09-19T15:48:05;2.22;;;1.70;;
42742;SDS011;28397;44.552;-0.848;2022-09-19T15:50:39;6.00;;;1.70;;
42742;SDS011;28397;44.552;-0.848;2022-09-19T15:53:27;2.78;;;1.70;;
42742;SDS011;28397;44.552;-0.848;2022-09-19T15:56:04;4.35;;;1.40;;
42742;SDS011;28397;44.552;-0.848;2022-09-19T15:59:14;3.15;;;1.70;;
42742;SDS011;28397;44.552;-0.848;2022-09-19T16:01:27;2.83;;;1.58;;
42742;SDS011;28397;44.552;-0.848;2022-09-19T16:03:58;3.22;;;1.55;;
42742;SDS011;28397;44.552;-0.848;2022-09-19T16:06:42;4.22;;;1.52;;
42742;SDS011;28397;44.552;-0.848;2022-09-19T16:12:00;3.05;;;1.85;;
42742;SDS011;28397;44.552;-0.848;2022-09-19T16:14:39;4.00;;;1.80;;
42742;SDS011;28397;44.552;-0.848;2022-09-19T16:17:07;4.38;;;1.73;;
42742;SDS011;28397;44.552;-0.848;2022-09-19T16:19:46;2.65;;;1.70;;
42742;SDS011;28397;44.552;-0.848;2022-09-19T16:22:13;2.15;;;1.42;;
42742;SDS011;28397;44.552;-0.848;2022-09-19T16:24:49;3.00;;;1.50;;
42742;SDS011;28397;44.552;-0.848;2022-09-19T16:27:25;1.98;;;1.40;;
42742;SDS011;28397;44.552;-0.848;2022-09-19T16:29:53;2.90;;;1.77;;
42742;SDS011;28397;44.552;-0.848;2022-09-19T16:32:21;3.08;;;1.63;;
42742;SDS011;28397;44.552;-0.848;2022-09-19T16:34:51;5.70;;;1.63;;
42742;SDS011;28397;44.552;-0.848;2022-09-19T16:37:40;6.32;;;1.70;;
42742;SDS011;28397;44.552;-0.848;2022-09-19T16:40:07;6.50;;;1.90;;
42742;SDS011;28397;44.552;-0.848;2022-09-19T16:42:44;3.30;;;1.42;;
42742;SDS011;28397;44.552;-0.848;2022-09-19T16:47:46;4.50;;;1.70;;
42742;SDS011;28397;44.552;-0.848;2022-09-19T16:50:14;3.08;;;1.70;;
42742;SDS011;28397;44.552;-0.848;2022-09-19T16:52:45;4.97;;;1.58;;
42742;SDS011;28397;44.552;-0.848;2022-09-19T16:57:50;2.58;;;1.70;;
42742;SDS011;28397;44.552;-0.848;2022-09-19T17:00:21;4.43;;;1.80;;
42742;SDS011;28397;44.552;-0.848;2022-09-19T17:02:48;4.38;;;2.22;;
42742;SDS011;28397;44.552;-0.848;2022-09-19T17:05:19;2.25;;;1.55;;
42742;SDS011;28397;44.552;-0.848;2022-09-19T17:07:47;2.72;;;1.67;;
42742;SDS011;28397;44.552;-0.848;2022-09-19T17:10:14;3.33;;;1.65;;
42742;SDS011;28397;44.552;-0.848;2022-09-19T17:12:41;2.78;;;1.65;;
42742;SDS011;28397;44.552;-0.848;2022-09-19T17:15:18;4.03;;;1.75;;
42742;SDS011;28397;44.552;-0.848;2022-09-19T17:17:45;3.80;;;1.90;;
42742;SDS011;28397;44.552;-0.848;2022-09-19T17:20:10;5.10;;;1.60;;
42742;SDS011;28397;44.552;-0.848;2022-09-19T17:22:36;5.32;;;1.80;;
42742;SDS011;28397;44.552;-0.848;2022-09-19T17:25:01;4.68;;;1.73;;
42742;SDS011;28397;44.552;-0.848;2022-09-19T17:27:27;4.28;;;1.63;;
42742;SDS011;28397;44.552;-0.848;2022-09-19T17:29:53;3.70;;;1.70;;
42742;SDS011;28397;44.552;-0.848;2022-09-19T17:32:21;4.45;;;1.70;;
42742;SDS011;28397;44.552;-0.848;2022-09-19T17:34:46;3.28;;;1.83;;
42742;SDS011;28397;44.552;-0.848;2022-09-19T17:37:12;2.88;;;2.00;;
42742;SDS011;28397;44.552;-0.848;2022-09-19T17:39:38;1.83;;;1.60;;
42742;SDS011;28397;44.552;-0.848;2022-09-19T17:42:03;3.03;;;1.70;;
42742;SDS011;28397;44.552;-0.848;2022-09-19T17:44:29;2.85;;;1.90;;
42742;SDS011;28397;44.552;-0.848;2022-09-19T17:46:55;2.13;;;1.70;;
42742;SDS011;28397;44.552;-0.848;2022-09-19T17:49:21;5.22;;;1.80;;
42742;SDS011;28397;44.552;-0.848;2022-09-19T17:51:48;5.65;;;2.10;;
42742;SDS011;28397;44.552;-0.848;2022-09-19T17:54:14;4.68;;;1.95;;
42742;SDS011;28397;44.552;-0.848;2022-09-19T17:56:40;3.42;;;1.95;;
42742;SDS011;28397;44.552;-0.848;2022-09-19T17:59:07;2.70;;;2.00;;
42742;SDS011;28397;44.552;-0.848;2022-09-19T18:01:33;3.83;;;1.77;;
42742;SDS011;28397;44.552;-0.848;2022-09-19T18:04:18;2.97;;;1.98;;
42742;SDS011;28397;44.552;-0.848;2022-09-19T18:06:43;4.85;;;1.98;;
42742;SDS011;28397;44.552;-0.848;2022-09-19T18:09:10;4.93;;;1.90;;
42742;SDS011;28397;44.552;-0.848;2022-09-19T18:11:38;2.70;;;1.75;;
42742;SDS011;28397;44.552;-0.848;2022-09-19T18:14:04;2.28;;;1.73;;
42742;SDS011;28397;44.552;-0.848;2022-09-19T18:16:31;2.08;;;1.75;;
42742;SDS011;28397;44.552;-0.848;2022-09-19T18:18:59;3.78;;;2.08;;
42742;SDS011;28397;44.552;-0.848;2022-09-19T18:21:25;4.90;;;2.10;;
42742;SDS011;28397;44.552;-0.848;2022-09-19T18:23:52;3.53;;;1.58;;
42742;SDS011;28397;44.552;-0.848;2022-09-19T18:26:19;2.70;;;1.83;;
42742;SDS011;28397;44.552;-0.848;2022-09-19T18:28:45;4.85;;;1.90;;
42742;SDS011;28397;44.552;-0.848;2022-09-19T18:31:17;3.42;;;1.65;;
42742;SDS011;28397;44.552;-0.848;2022-09-19T18:33:43;3.97;;;1.60;;
42742;SDS011;28397;44.552;-0.848;2022-09-19T18:36:16;5.78;;;1.60;;
42742;SDS011;28397;44.552;-0.848;2022-09-19T18:38:47;3.78;;;1.70;;
42742;SDS011;28397;44.552;-0.848;2022-09-19T18:41:15;3.50;;;1.85;;
42742;SDS011;28397;44.552;-0.848;2022-09-19T18:43:41;6.57;;;2.00;;
42742;SDS011;28397;44.552;-0.848;2022-09-19T18:46:11;3.45;;;2.00;;